createdAt,value
2018-03-07T00:00:17.273Z,17.75
2018-03-07T00:02:45.317Z,18.67
2018-03-07T00:05:13.348Z,16.40
2018-03-07T00:07:41.348Z,16.45
2018-03-07T00:10:09.417Z,16.45
2018-03-07T00:12:37.450Z,17.17
2018-03-07T00:15:06.558Z,18.55
2018-03-07T00:17:34.576Z,17.67
2018-03-07T00:20:02.589Z,16.55
2018-03-07T00:22:30.574Z,17.67
2018-03-07T00:24:58.601Z,18.35
2018-03-07T00:27:26.646Z,16.10
2018-03-07T00:29:54.705Z,16.62
2018-03-07T00:32:22.721Z,19.87
2018-03-07T00:34:50.749Z,17.62
2018-03-07T00:37:18.770Z,18.17
2018-03-07T00:39:46.791Z,17.35
2018-03-07T00:42:14.953Z,15.57
2018-03-07T00:44:43.150Z,17.48
2018-03-07T00:47:11.174Z,17.10
2018-03-07T00:49:39.214Z,16.48
2018-03-07T00:52:07.270Z,18.27
2018-03-07T00:54:35.307Z,17.50
2018-03-07T00:57:03.349Z,13.88
2018-03-07T00:59:31.419Z,15.20
2018-03-07T01:01:59.485Z,17.77
2018-03-07T01:04:27.502Z,14.82
2018-03-07T01:06:55.505Z,17.37
2018-03-07T01:09:23.561Z,14.77
2018-03-07T01:11:51.570Z,15.70
2018-03-07T01:14:19.564Z,17.37
2018-03-07T01:16:47.574Z,17.15
2018-03-07T01:19:15.573Z,14.45
2018-03-07T01:21:43.603Z,14.45
2018-03-07T01:24:11.687Z,15.27
2018-03-07T01:26:39.726Z,13.32
2018-03-07T01:29:07.770Z,13.05
2018-03-07T01:31:35.813Z,13.25
2018-03-07T01:34:03.830Z,13.38
2018-03-07T01:36:31.873Z,13.32
2018-03-07T01:38:59.885Z,14.40
2018-03-07T01:41:27.915Z,16.23
2018-03-07T01:43:56.026Z,16.20
2018-03-07T01:46:24.014Z,15.48
2018-03-07T01:48:52.011Z,16.48
2018-03-07T01:51:20.057Z,18.20
2018-03-07T01:53:48.026Z,17.95
2018-03-07T01:56:16.083Z,18.62
2018-03-07T01:58:44.066Z,19.80
2018-03-07T02:01:12.061Z,21.30
2018-03-07T02:03:40.092Z,20.95
2018-03-07T02:06:08.107Z,20.48
2018-03-07T02:08:36.105Z,20.92
2018-03-07T02:11:04.134Z,20.62
2018-03-07T02:13:32.143Z,20.55
2018-03-07T02:16:00.177Z,19.17
2018-03-07T02:18:28.254Z,20.08
2018-03-07T02:20:56.298Z,18.98
2018-03-07T02:23:24.321Z,19.20
2018-03-07T02:25:52.358Z,18.80
2018-03-07T02:28:20.410Z,20.45
2018-03-07T02:30:48.435Z,21.58
2018-03-07T02:33:16.450Z,22.40
2018-03-07T02:35:44.480Z,24.65
2018-03-07T02:38:12.506Z,24.05
2018-03-07T02:40:40.546Z,20.77
2018-03-07T02:43:08.542Z,23.98
2018-03-07T02:45:36.581Z,21.80
2018-03-07T02:48:04.599Z,20.20
2018-03-07T02:50:32.650Z,22.37
2018-03-07T02:53:00.722Z,19.87
2018-03-07T02:55:28.741Z,22.62
2018-03-07T02:57:56.750Z,20.12
2018-03-07T03:00:24.809Z,18.75
2018-03-07T03:02:52.838Z,22.87
2018-03-07T03:05:20.853Z,20.48
2018-03-07T03:07:48.912Z,21.20
2018-03-07T03:10:16.985Z,20.65
2018-03-07T03:12:45.019Z,19.20
2018-03-07T03:15:13.070Z,20.10
2018-03-07T03:17:41.097Z,19.92
2018-03-07T03:20:09.141Z,22.33
2018-03-07T03:22:37.133Z,22.30
2018-03-07T03:25:05.200Z,21.37
2018-03-07T03:27:33.227Z,21.20
2018-03-07T03:30:01.255Z,19.80
2018-03-07T03:32:29.299Z,20.23
2018-03-07T03:34:57.366Z,20.27
2018-03-07T03:37:25.408Z,22.80
2018-03-07T03:39:53.438Z,18.65
2018-03-07T03:42:21.510Z,20.37
2018-03-07T03:44:49.538Z,20.00
2018-03-07T03:47:17.542Z,18.98
2018-03-07T03:49:45.607Z,18.55
2018-03-07T03:52:13.672Z,18.95
2018-03-07T03:54:41.715Z,18.33
2018-03-07T03:57:09.783Z,16.40
2018-03-07T03:59:37.855Z,15.50
2018-03-07T04:02:05.896Z,16.70
2018-03-07T04:04:33.962Z,17.48
2018-03-07T04:07:01.980Z,18.58
2018-03-07T04:09:30.171Z,17.65
2018-03-07T04:11:58.254Z,16.58
2018-03-07T04:14:26.286Z,17.12
2018-03-07T04:16:54.331Z,19.02
2018-03-07T04:19:22.458Z,16.92
2018-03-07T04:21:50.482Z,17.27
2018-03-07T04:24:18.551Z,14.98
2018-03-07T04:26:46.587Z,16.30
2018-03-07T04:29:14.658Z,15.68
2018-03-07T04:31:42.667Z,16.45
2018-03-07T04:34:10.739Z,14.40
2018-03-07T04:36:38.778Z,15.27
2018-03-07T04:39:06.790Z,14.85
2018-03-07T04:41:34.819Z,15.98
2018-03-07T04:44:02.827Z,16.23
2018-03-07T04:46:30.862Z,18.37
2018-03-07T04:48:58.938Z,15.75
2018-03-07T04:51:26.995Z,14.80
2018-03-07T04:53:55.058Z,15.38
2018-03-07T04:56:23.111Z,14.82
2018-03-07T04:58:51.162Z,14.87
2018-03-07T05:01:20.251Z,15.57
2018-03-07T05:03:48.275Z,15.05
2018-03-07T05:06:16.323Z,16.70
2018-03-07T05:08:44.359Z,14.43
2018-03-07T05:11:12.418Z,17.65
2018-03-07T05:13:40.443Z,16.90
2018-03-07T05:16:08.485Z,16.05
2018-03-07T05:18:36.550Z,14.90
2018-03-07T05:21:04.569Z,14.50
2018-03-07T05:23:32.619Z,15.98
2018-03-07T05:26:00.655Z,15.07
2018-03-07T05:28:28.654Z,13.90
2018-03-07T05:30:56.666Z,13.02
2018-03-07T05:33:24.701Z,13.48
2018-03-07T05:35:52.753Z,14.60
2018-03-07T05:38:20.808Z,15.63
2018-03-07T05:40:48.852Z,16.05
2018-03-07T05:43:16.901Z,14.18
2018-03-07T05:45:44.944Z,13.07
2018-03-07T05:48:12.976Z,15.93
2018-03-07T05:50:42.031Z,13.10
2018-03-07T05:53:10.096Z,16.30
2018-03-07T05:55:38.175Z,18.50
2018-03-07T05:58:06.195Z,17.62
2018-03-07T06:00:34.263Z,19.85
2018-03-07T06:03:02.299Z,19.83
2018-03-07T06:05:30.355Z,17.08
2018-03-07T06:07:58.460Z,20.10
2018-03-07T06:10:26.573Z,20.23
2018-03-07T06:12:54.624Z,20.50
2018-03-07T06:15:22.672Z,23.20
2018-03-07T06:17:50.679Z,20.20
2018-03-07T06:20:18.736Z,20.58
2018-03-07T06:22:46.759Z,18.60
2018-03-07T06:25:14.933Z,17.62
2018-03-07T06:27:42.980Z,18.80
2018-03-07T06:30:11.038Z,18.40
2018-03-07T06:32:39.088Z,16.70
2018-03-07T06:35:08.193Z,15.75
2018-03-07T06:37:36.271Z,15.70
2018-03-07T06:40:04.342Z,15.27
2018-03-07T06:42:32.371Z,13.90
2018-03-07T06:45:00.424Z,16.83
2018-03-07T06:47:28.582Z,13.73
2018-03-07T06:49:56.665Z,15.85
2018-03-07T06:52:24.731Z,15.43
2018-03-07T06:54:52.772Z,15.60
2018-03-07T06:57:20.818Z,15.50
2018-03-07T06:59:48.886Z,15.48
2018-03-07T07:02:16.950Z,14.82
2018-03-07T07:04:44.959Z,14.57
2018-03-07T07:07:13.013Z,15.18
2018-03-07T07:09:41.030Z,17.70
2018-03-07T07:12:09.091Z,13.70
2018-03-07T07:14:37.179Z,15.90
2018-03-07T07:17:05.203Z,13.80
2018-03-07T07:19:33.240Z,15.02
2018-03-07T07:22:01.270Z,14.52
2018-03-07T07:24:29.331Z,15.43
2018-03-07T07:26:57.411Z,16.17
2018-03-07T07:29:25.490Z,14.95
2018-03-07T07:31:53.534Z,16.50
2018-03-07T07:34:21.618Z,16.95
2018-03-07T07:36:49.714Z,15.10
2018-03-07T07:39:17.759Z,15.50
2018-03-07T07:41:45.794Z,14.85
2018-03-07T07:44:13.915Z,15.60
2018-03-07T07:46:41.969Z,16.25
2018-03-07T07:49:10.026Z,15.65
2018-03-07T07:51:38.128Z,14.43
2018-03-07T07:54:06.183Z,13.57
2018-03-07T07:56:34.267Z,12.35
2018-03-07T07:59:02.300Z,13.75
2018-03-07T08:01:30.374Z,14.38
2018-03-07T08:03:58.440Z,13.30
2018-03-07T08:06:26.622Z,13.07
2018-03-07T08:08:54.703Z,13.73
2018-03-07T08:11:22.783Z,13.98
2018-03-07T08:13:50.812Z,14.40
2018-03-07T08:16:18.889Z,15.75
2018-03-07T08:18:46.994Z,13.00
2018-03-07T08:21:16.087Z,12.98
2018-03-07T08:23:44.111Z,14.55
2018-03-07T08:26:12.191Z,14.10
2018-03-07T08:28:40.215Z,15.90
2018-03-07T08:31:08.306Z,13.25
2018-03-07T08:33:36.368Z,13.60
2018-03-07T08:36:04.409Z,13.13
2018-03-07T08:38:32.456Z,15.25
2018-03-07T08:41:00.474Z,13.70
2018-03-07T08:43:28.495Z,13.20
2018-03-07T08:45:56.575Z,14.07
2018-03-07T08:48:24.588Z,14.77
2018-03-07T08:50:52.658Z,13.90
2018-03-07T08:53:20.707Z,15.23
2018-03-07T08:55:48.753Z,14.35
2018-03-07T08:58:16.818Z,16.23
2018-03-07T09:00:44.855Z,16.20
2018-03-07T09:03:12.887Z,14.30
2018-03-07T09:05:40.963Z,16.08
2018-03-07T09:08:09.069Z,16.77
2018-03-07T09:10:37.174Z,15.88
2018-03-07T09:13:05.254Z,14.18
2018-03-07T09:15:33.331Z,15.90
2018-03-07T09:18:01.360Z,17.80
2018-03-07T09:20:29.399Z,16.55
2018-03-07T09:22:57.431Z,16.30
2018-03-07T09:25:25.483Z,17.05
2018-03-07T09:27:53.576Z,16.55
2018-03-07T09:30:21.680Z,15.10
2018-03-07T09:32:49.698Z,17.15
2018-03-07T09:35:17.763Z,16.77
2018-03-07T09:37:45.817Z,17.23
2018-03-07T09:40:14.154Z,16.10
2018-03-07T09:42:42.186Z,16.42
2018-03-07T09:45:10.245Z,16.42
2018-03-07T09:47:38.263Z,15.00
2018-03-07T09:50:06.320Z,15.68
2018-03-07T09:52:34.414Z,16.15
2018-03-07T09:55:02.527Z,16.58
2018-03-07T09:57:30.577Z,15.20
2018-03-07T09:59:58.657Z,14.77
2018-03-07T10:02:26.710Z,16.37
2018-03-07T10:04:54.750Z,16.00
2018-03-07T10:07:23.918Z,15.55
2018-03-07T10:09:51.951Z,16.95
2018-03-07T10:12:20.023Z,17.55
2018-03-07T10:14:48.091Z,15.95
2018-03-07T10:17:16.098Z,18.10
2018-03-07T10:19:44.143Z,16.98
2018-03-07T10:22:12.155Z,15.77
2018-03-07T10:24:40.207Z,17.12
2018-03-07T10:27:08.195Z,15.25
2018-03-07T10:29:36.269Z,16.70
2018-03-07T10:32:04.338Z,16.33
2018-03-07T10:34:32.394Z,15.40
2018-03-07T10:37:00.434Z,15.13
2018-03-07T10:39:28.466Z,15.85
2018-03-07T10:41:56.527Z,15.00
2018-03-07T10:44:24.582Z,16.80
2018-03-07T10:46:52.657Z,15.10
2018-03-07T10:49:20.715Z,13.40
2018-03-07T10:51:48.799Z,13.32
2018-03-07T10:54:16.848Z,12.07
2018-03-07T10:56:44.919Z,14.35
2018-03-07T10:59:13.015Z,12.95
2018-03-07T11:01:41.074Z,11.40
2018-03-07T11:04:09.111Z,10.30
2018-03-07T11:06:37.191Z,11.25
2018-03-07T11:09:05.232Z,10.10
2018-03-07T11:11:33.288Z,9.90
2018-03-07T11:14:01.339Z,10.18
2018-03-07T11:16:29.370Z,10.07
2018-03-07T11:18:57.376Z,7.87
2018-03-07T11:21:25.477Z,7.30
2018-03-07T11:23:53.534Z,7.07
2018-03-07T11:26:21.547Z,8.10
2018-03-07T11:28:50.631Z,7.12
2018-03-07T11:31:18.879Z,6.95
2018-03-07T11:33:46.902Z,7.10
2018-03-07T11:36:14.997Z,6.75
2018-03-07T11:38:43.092Z,6.60
2018-03-07T11:41:11.134Z,6.97
2018-03-07T11:43:39.198Z,7.10
2018-03-07T11:46:07.245Z,6.70
2018-03-07T11:48:35.274Z,6.20
2018-03-07T11:51:03.343Z,6.90
2018-03-07T11:53:31.352Z,6.40
2018-03-07T11:55:59.440Z,5.57
2018-03-07T11:58:27.458Z,5.43
2018-03-07T12:00:55.491Z,3.03
2018-03-07T12:03:23.559Z,2.35
2018-03-07T12:05:51.638Z,2.15
2018-03-07T12:08:19.672Z,2.12
2018-03-07T12:10:47.743Z,3.10
2018-03-07T12:13:15.839Z,2.15
2018-03-07T12:15:43.907Z,2.00
2018-03-07T12:18:11.975Z,2.30
2018-03-07T12:20:40.102Z,2.40
2018-03-07T12:23:08.171Z,2.33
2018-03-07T12:25:36.252Z,1.70
2018-03-07T12:28:04.355Z,2.00
2018-03-07T12:30:32.475Z,2.10
2018-03-07T12:33:00.682Z,2.13
2018-03-07T12:35:28.751Z,1.83
2018-03-07T12:37:56.794Z,2.00
2018-03-07T12:40:24.878Z,1.80
2018-03-07T12:42:52.966Z,1.87
2018-03-07T12:45:21.023Z,2.10
2018-03-07T12:47:49.060Z,1.50
2018-03-07T12:50:17.101Z,1.93
2018-03-07T12:52:45.094Z,1.73
2018-03-07T12:55:13.111Z,1.87
2018-03-07T12:57:41.087Z,1.87
2018-03-07T13:00:09.064Z,2.03
2018-03-07T13:02:37.091Z,2.00
2018-03-07T13:05:05.162Z,1.30
2018-03-07T13:07:33.227Z,1.40
2018-03-07T13:10:01.323Z,1.67
2018-03-07T13:12:30.518Z,1.40
2018-03-07T13:14:58.554Z,1.97
2018-03-07T13:17:26.627Z,1.20
2018-03-07T13:19:55.714Z,1.60
2018-03-07T13:22:24.814Z,1.50
2018-03-07T13:24:52.851Z,1.20
2018-03-07T13:27:20.911Z,1.52
2018-03-07T13:29:48.939Z,1.30
2018-03-07T13:32:17.007Z,1.58
2018-03-07T13:34:45.076Z,1.12
2018-03-07T13:37:13.098Z,1.50
2018-03-07T13:39:41.208Z,1.33
2018-03-07T13:42:09.252Z,1.25
2018-03-07T13:44:37.385Z,1.00
2018-03-07T13:47:05.386Z,1.77
2018-03-07T13:49:33.458Z,1.92
2018-03-07T13:52:02.551Z,1.50
2018-03-07T13:54:30.591Z,2.65
2018-03-07T13:56:58.665Z,1.83
2018-03-07T13:59:26.722Z,1.80
2018-03-07T14:01:54.778Z,1.40
2018-03-07T14:04:22.897Z,1.50
2018-03-07T14:06:50.915Z,1.00
2018-03-07T14:09:18.962Z,1.17
2018-03-07T14:11:47.041Z,1.00
2018-03-07T14:14:15.163Z,1.40
2018-03-07T14:16:43.215Z,1.67
2018-03-07T14:19:11.250Z,1.53
2018-03-07T14:21:39.267Z,1.30
2018-03-07T14:24:07.332Z,1.30
2018-03-07T14:26:35.434Z,1.17
2018-03-07T14:29:03.510Z,1.20
2018-03-07T14:31:31.556Z,1.20
2018-03-07T14:33:59.651Z,1.60
2018-03-07T14:36:27.727Z,1.00
2018-03-07T14:38:56.853Z,1.07
2018-03-07T14:41:24.887Z,1.20
2018-03-07T14:43:52.962Z,1.67
2018-03-07T14:46:20.986Z,1.33
2018-03-07T14:48:49.074Z,1.30
2018-03-07T14:51:17.151Z,1.00
2018-03-07T14:53:45.179Z,0.90
2018-03-07T14:56:13.259Z,1.43
2018-03-07T14:58:41.322Z,1.50
2018-03-07T15:01:09.371Z,1.10
2018-03-07T15:03:37.448Z,1.30
2018-03-07T15:06:05.558Z,0.95
2018-03-07T15:08:33.600Z,1.40
2018-03-07T15:11:01.639Z,1.70
2018-03-07T15:13:29.676Z,0.85
2018-03-07T15:15:57.708Z,1.37
2018-03-07T15:18:26.807Z,0.80
2018-03-07T15:20:54.851Z,0.77
2018-03-07T15:23:22.942Z,0.70
2018-03-07T15:25:50.984Z,0.90
2018-03-07T15:28:19.043Z,1.25
2018-03-07T15:30:48.127Z,1.02
2018-03-07T15:33:16.195Z,1.62
2018-03-07T15:35:44.235Z,1.45
2018-03-07T15:38:12.272Z,1.53
2018-03-07T15:40:40.394Z,1.70
2018-03-07T15:43:08.588Z,1.80
2018-03-07T15:45:36.675Z,2.05
2018-03-07T15:48:04.702Z,1.27
2018-03-07T15:50:32.727Z,8.05
2018-03-07T15:53:00.819Z,3.80
2018-03-07T15:55:28.863Z,3.65
2018-03-07T15:57:56.886Z,2.90
2018-03-07T16:00:24.933Z,3.20
2018-03-07T16:02:52.954Z,1.60
2018-03-07T16:05:21.044Z,3.08
2018-03-07T16:07:49.061Z,4.05
2018-03-07T16:10:17.161Z,1.87
2018-03-07T16:12:45.194Z,2.25
2018-03-07T16:15:13.258Z,2.00
2018-03-07T16:17:41.354Z,2.33
2018-03-07T16:20:09.374Z,2.10
2018-03-07T16:22:37.368Z,2.55
2018-03-07T16:25:05.428Z,2.20
2018-03-07T16:27:33.503Z,3.40
2018-03-07T16:30:01.547Z,3.97
2018-03-07T16:32:30.663Z,3.00
2018-03-07T16:34:58.730Z,2.00
2018-03-07T16:37:26.787Z,2.70
2018-03-07T16:39:54.979Z,2.83
2018-03-07T16:42:23.046Z,2.45
2018-03-07T16:44:51.067Z,3.22
2018-03-07T16:47:19.143Z,3.05
2018-03-07T16:49:47.206Z,3.08
2018-03-07T16:52:15.246Z,2.10
2018-03-07T16:54:43.279Z,3.20
2018-03-07T16:57:12.170Z,2.80
2018-03-07T16:59:40.203Z,2.97
2018-03-07T17:02:08.243Z,3.62
2018-03-07T17:04:36.266Z,3.40
2018-03-07T17:07:04.307Z,2.12
2018-03-07T17:09:33.462Z,2.47
2018-03-07T17:12:01.495Z,2.35
2018-03-07T17:14:29.542Z,2.85
2018-03-07T17:16:57.595Z,2.65
2018-03-07T17:19:26.679Z,3.10
2018-03-07T17:21:54.701Z,3.45
2018-03-07T17:24:22.735Z,2.85
2018-03-07T17:26:50.799Z,1.98
2018-03-07T17:29:18.796Z,2.83
2018-03-07T17:31:46.894Z,2.95
2018-03-07T17:34:14.975Z,2.75
2018-03-07T17:36:43.014Z,2.08
2018-03-07T17:39:11.063Z,2.67
2018-03-07T17:41:39.116Z,2.75
2018-03-07T17:44:07.183Z,2.95
2018-03-07T17:46:36.315Z,3.90
2018-03-07T17:49:04.435Z,3.42
2018-03-07T17:51:32.477Z,3.65
2018-03-07T17:54:00.516Z,2.80
2018-03-07T17:56:28.566Z,3.92
2018-03-07T17:58:56.578Z,2.95
2018-03-07T18:01:24.618Z,3.45
2018-03-07T18:03:52.672Z,3.37
2018-03-07T18:06:20.706Z,3.03
2018-03-07T18:08:48.739Z,4.15
2018-03-07T18:11:16.819Z,4.00
2018-03-07T18:13:44.835Z,4.32
2018-03-07T18:16:12.879Z,3.55
2018-03-07T18:18:41.130Z,2.85
2018-03-07T18:21:09.198Z,3.75
2018-03-07T18:23:37.259Z,3.72
2018-03-07T18:26:05.326Z,3.80
2018-03-07T18:28:33.355Z,3.25
2018-03-07T18:31:01.393Z,3.55
2018-03-07T18:33:29.469Z,4.57
2018-03-07T18:35:57.498Z,3.75
2018-03-07T18:38:25.540Z,3.75
2018-03-07T18:40:53.649Z,3.15
2018-03-07T18:43:21.723Z,3.85
2018-03-07T18:45:49.831Z,3.35
2018-03-07T18:48:17.880Z,3.17
2018-03-07T18:50:45.915Z,3.75
2018-03-07T18:53:13.992Z,3.47
2018-03-07T18:55:43.262Z,4.07
2018-03-07T18:58:11.295Z,2.80
2018-03-07T19:00:39.335Z,2.70
2018-03-07T19:03:07.439Z,2.62
2018-03-07T19:05:35.491Z,2.67
2018-03-07T19:08:03.499Z,3.40
2018-03-07T19:10:31.550Z,3.22
2018-03-07T19:13:04.010Z,2.95
2018-03-07T19:15:32.802Z,2.83
2018-03-07T19:18:01.149Z,3.10
2018-03-07T19:20:29.246Z,3.25
2018-03-07T19:22:57.295Z,2.87
2018-03-07T19:25:25.624Z,3.30
2018-03-07T19:27:53.841Z,2.58
2018-03-07T19:30:21.915Z,2.95
2018-03-07T19:32:49.952Z,2.90
2018-03-07T19:35:18.079Z,2.20
2018-03-07T19:37:46.148Z,2.45
2018-03-07T19:40:14.187Z,2.55
2018-03-07T19:42:42.195Z,2.25
2018-03-07T19:45:10.243Z,2.95
2018-03-07T19:47:38.282Z,3.00
2018-03-07T19:50:06.346Z,2.40
2018-03-07T19:52:34.445Z,2.60
2018-03-07T19:55:02.517Z,2.80
2018-03-07T19:57:30.560Z,2.53
2018-03-07T19:59:58.643Z,2.62
2018-03-07T20:02:26.790Z,2.00
2018-03-07T20:04:54.826Z,2.33
2018-03-07T20:07:22.967Z,2.72
2018-03-07T20:09:51.027Z,2.80
2018-03-07T20:12:19.116Z,2.97
2018-03-07T20:14:47.155Z,2.30
2018-03-07T20:17:15.295Z,2.35
2018-03-07T20:19:43.339Z,2.65
2018-03-07T20:22:11.371Z,2.62
2018-03-07T20:24:39.461Z,3.28
2018-03-07T20:27:07.897Z,2.05
2018-03-07T20:29:36.128Z,2.83
2018-03-07T20:32:04.279Z,2.55
2018-03-07T20:34:32.331Z,2.53
2018-03-07T20:37:00.396Z,2.42
2018-03-07T20:39:28.479Z,2.87
2018-03-07T20:41:56.495Z,2.20
2018-03-07T20:44:24.515Z,2.12
2018-03-07T20:46:54.691Z,2.83
2018-03-07T20:49:22.787Z,2.00
2018-03-07T20:51:50.819Z,3.55
2018-03-07T20:54:18.849Z,2.40
2018-03-07T20:56:46.942Z,2.62
2018-03-07T20:59:14.951Z,2.53
2018-03-07T21:01:43.062Z,2.37
2018-03-07T21:04:11.195Z,2.70
2018-03-07T21:06:39.211Z,2.47
2018-03-07T21:09:07.242Z,1.80
2018-03-07T21:11:35.281Z,2.87
2018-03-07T21:14:03.339Z,1.90
2018-03-07T21:16:31.371Z,2.08
2018-03-07T21:18:59.413Z,2.47
2018-03-07T21:21:27.467Z,2.55
2018-03-07T21:23:55.494Z,3.20
2018-03-07T21:26:23.567Z,2.70
2018-03-07T21:28:51.595Z,2.83
2018-03-07T21:31:19.651Z,2.70
2018-03-07T21:33:47.682Z,2.85
2018-03-07T21:36:15.754Z,2.90
2018-03-07T21:38:43.897Z,3.03
2018-03-07T21:41:11.946Z,3.25
2018-03-07T21:43:39.999Z,3.15
2018-03-07T21:46:08.051Z,3.60
2018-03-07T21:48:36.175Z,3.62
2018-03-07T21:51:04.215Z,2.72
2018-03-07T21:53:33.655Z,4.50
2018-03-07T21:56:01.705Z,4.20
2018-03-07T21:58:29.776Z,3.70
2018-03-07T22:00:57.876Z,3.53
2018-03-07T22:03:26.027Z,4.10
2018-03-07T22:05:54.116Z,4.60
2018-03-07T22:08:22.202Z,5.15
2018-03-07T22:10:50.318Z,4.78
2018-03-07T22:13:19.420Z,5.55
2018-03-07T22:15:47.483Z,4.55
2018-03-07T22:18:15.555Z,5.25
2018-03-07T22:20:43.583Z,5.90
2018-03-07T22:23:11.612Z,5.37
2018-03-07T22:25:39.730Z,5.40
2018-03-07T22:28:07.732Z,5.05
2018-03-07T22:30:35.768Z,5.00
2018-03-07T22:33:03.826Z,4.50
2018-03-07T22:35:31.871Z,5.65
2018-03-07T22:38:00.103Z,4.50
2018-03-07T22:40:28.518Z,6.10
2018-03-07T22:42:56.859Z,6.53
2018-03-07T22:45:25.028Z,6.80
2018-03-07T22:47:53.127Z,6.60
2018-03-07T22:50:21.131Z,6.60
2018-03-07T22:52:49.238Z,7.35
2018-03-07T22:55:17.327Z,6.80
2018-03-07T22:57:45.351Z,6.70
2018-03-07T23:00:24.438Z,6.28
2018-03-07T23:02:52.488Z,6.68
2018-03-07T23:05:20.543Z,6.50
2018-03-07T23:07:48.586Z,5.55
2018-03-07T23:10:16.651Z,6.25
2018-03-07T23:12:44.707Z,6.82
2018-03-07T23:15:12.776Z,6.28
2018-03-07T23:17:40.834Z,6.32
2018-03-07T23:20:08.855Z,6.53
2018-03-07T23:22:36.921Z,5.95
2018-03-07T23:25:05.003Z,7.37
2018-03-07T23:27:33.084Z,6.35
2018-03-07T23:30:01.188Z,7.57
2018-03-07T23:32:29.262Z,6.30
2018-03-07T23:34:57.275Z,6.47
2018-03-07T23:37:25.351Z,7.72
2018-03-07T23:39:53.430Z,6.95
2018-03-07T23:42:21.459Z,7.37
2018-03-07T23:44:49.520Z,7.10
2018-03-07T23:47:17.567Z,6.68
2018-03-07T23:49:45.597Z,6.57
2018-03-07T23:52:13.674Z,6.10
2018-03-07T23:54:56.670Z,6.15
2018-03-07T23:57:24.702Z,5.32
2018-03-07T23:59:52.744Z,6.40
